createdAt,value
2022-11-05T00:00:41.860Z,12.07
2022-11-05T00:06:15.691Z,9.87
2022-11-05T00:09:03.656Z,12.58
2022-11-05T00:11:51.197Z,9.63
2022-11-05T00:14:38.754Z,10.40
2022-11-05T00:17:08.510Z,7.47
2022-11-05T00:19:38.270Z,9.87
2022-11-05T00:22:26.184Z,7.40
2022-11-05T00:25:13.297Z,7.97
2022-11-05T00:27:44.189Z,6.30
2022-11-05T00:30:18.619Z,5.10
2022-11-05T00:32:50.695Z,9.93
2022-11-05T00:35:22.759Z,5.00
2022-11-05T00:37:54.570Z,4.83
2022-11-05T00:40:24.297Z,2.75
2022-11-05T00:43:12.213Z,4.77
2022-11-05T00:45:42.363Z,8.27
2022-11-05T00:48:29.885Z,4.67
2022-11-05T00:50:59.678Z,8.03
2022-11-05T00:53:29.541Z,5.47
2022-11-05T00:56:00.445Z,5.87
2022-11-05T00:58:30.289Z,4.23
2022-11-05T01:01:01.874Z,8.00
2022-11-05T01:03:34.665Z,5.97
2022-11-05T01:06:12.606Z,5.47
2022-11-05T01:08:44.023Z,4.97
2022-11-05T01:11:35.089Z,7.15
2022-11-05T01:14:09.792Z,7.30
2022-11-05T01:16:40.674Z,9.83
2022-11-05T01:19:11.856Z,8.75
2022-11-05T01:21:41.991Z,10.23
2022-11-05T01:24:12.274Z,6.43
2022-11-05T01:26:42.100Z,6.20
2022-11-05T01:29:12.642Z,6.73
2022-11-05T01:31:42.401Z,10.90
2022-11-05T01:34:11.843Z,7.40
2022-11-05T01:36:41.317Z,7.30
2022-11-05T01:39:11.091Z,6.17
2022-11-05T01:41:41.141Z,6.40
2022-11-05T01:44:49.206Z,5.55
2022-11-05T01:47:33.812Z,2.80
2022-11-05T01:50:20.825Z,6.05
2022-11-05T01:52:53.027Z,7.25
2022-11-05T01:55:25.834Z,6.97
2022-11-05T01:57:58.615Z,2.57
2022-11-05T02:00:28.349Z,4.15
2022-11-05T02:02:58.986Z,6.72
2022-11-05T02:05:29.436Z,5.23
2022-11-05T02:07:59.265Z,3.83
2022-11-05T02:10:29.765Z,5.25
2022-11-05T02:12:59.997Z,7.05
2022-11-05T02:15:32.760Z,3.17
2022-11-05T02:18:20.330Z,4.40
2022-11-05T02:21:10.452Z,3.85
2022-11-05T02:23:52.085Z,6.40
2022-11-05T02:26:24.879Z,5.20
2022-11-05T02:29:20.202Z,10.83
2022-11-05T02:32:11.993Z,9.67
2022-11-05T02:34:50.586Z,6.77
2022-11-05T02:37:41.158Z,5.77
2022-11-05T02:40:29.486Z,8.86
2022-11-05T02:43:20.202Z,5.97
2022-11-05T02:46:04.744Z,9.83
2022-11-05T02:48:46.527Z,8.37
2022-11-05T02:54:43.502Z,4.63
2022-11-05T02:57:13.301Z,5.70
2022-11-05T02:59:43.069Z,5.70
2022-11-05T03:02:13.620Z,3.63
2022-11-05T03:04:43.594Z,5.47
2022-11-05T03:07:25.347Z,7.25
2022-11-05T03:10:22.135Z,7.37
2022-11-05T03:13:06.830Z,6.67
2022-11-05T03:15:57.408Z,7.75
2022-11-05T03:18:44.852Z,10.98
2022-11-05T03:21:20.168Z,12.37
2022-11-05T03:23:58.244Z,7.97
2022-11-05T03:26:31.084Z,7.87
2022-11-05T03:29:13.315Z,8.00
2022-11-05T03:31:45.103Z,9.43
2022-11-05T03:34:16.629Z,6.15
2022-11-05T03:36:49.693Z,11.03
2022-11-05T03:39:37.377Z,9.77
2022-11-05T03:42:12.717Z,8.48
2022-11-05T03:44:45.803Z,10.30
2022-11-05T03:47:18.654Z,9.77
2022-11-05T03:49:57.270Z,11.93
2022-11-05T03:52:29.772Z,8.15
2022-11-05T03:55:00.470Z,9.37
2022-11-05T03:57:33.292Z,12.23
2022-11-05T04:00:04.713Z,11.17
2022-11-05T04:02:36.312Z,12.77
2022-11-05T04:05:09.703Z,10.10
2022-11-05T04:07:57.461Z,11.67
2022-11-05T04:10:44.640Z,13.20
2022-11-05T04:13:26.429Z,8.13
2022-11-05T04:16:15.372Z,15.00
2022-11-05T04:18:45.112Z,11.50
2022-11-05T04:21:32.894Z,12.40
2022-11-05T04:24:08.817Z,14.07
2022-11-05T04:26:44.967Z,13.40
2022-11-05T04:29:32.542Z,9.63
2022-11-05T04:32:02.261Z,14.50
2022-11-05T04:34:32.006Z,12.10
2022-11-05T04:37:01.775Z,12.03
2022-11-05T04:39:31.899Z,12.88
2022-11-05T04:42:01.804Z,14.97
2022-11-05T04:44:31.857Z,9.08
2022-11-05T04:47:01.362Z,15.35
2022-11-05T04:49:31.152Z,11.60
2022-11-05T04:52:00.905Z,11.40
2022-11-05T04:54:31.122Z,14.43
2022-11-05T04:57:01.138Z,13.77
2022-11-05T04:59:30.906Z,11.03
2022-11-05T05:02:00.697Z,14.47
2022-11-05T05:04:30.263Z,16.70
2022-11-05T05:07:00.123Z,13.73
2022-11-05T05:09:29.850Z,15.90
2022-11-05T05:11:59.645Z,16.50
2022-11-05T05:14:29.415Z,13.00
2022-11-05T05:16:59.256Z,14.07
2022-11-05T05:19:29.078Z,14.93
2022-11-05T05:21:58.935Z,12.67
2022-11-05T05:24:28.754Z,12.87
2022-11-05T05:26:58.253Z,13.45
2022-11-05T05:29:27.987Z,17.70
2022-11-05T05:31:57.751Z,13.37
2022-11-05T05:34:27.502Z,13.62
2022-11-05T05:36:57.241Z,20.80
2022-11-05T05:39:27.474Z,23.87
2022-11-05T05:41:57.401Z,17.07
2022-11-05T05:44:26.859Z,14.67
2022-11-05T05:46:56.657Z,15.30
2022-11-05T05:49:26.418Z,16.30
2022-11-05T05:51:56.763Z,16.97
2022-11-05T05:54:32.141Z,20.02
2022-11-05T05:56:58.185Z,15.00
2022-11-05T05:59:28.040Z,18.63
2022-11-05T06:01:58.389Z,17.57
2022-11-05T06:04:28.303Z,18.40
2022-11-05T06:06:58.084Z,19.40
2022-11-05T06:09:27.869Z,17.80
2022-11-05T06:11:57.622Z,15.60
2022-11-05T06:14:27.434Z,16.95
2022-11-05T06:16:57.233Z,20.63
2022-11-05T06:19:27.188Z,18.23
2022-11-05T06:21:56.934Z,14.13
2022-11-05T06:24:26.499Z,18.55
2022-11-05T06:26:56.301Z,16.20
2022-11-05T06:29:26.062Z,15.27
2022-11-05T06:31:55.933Z,17.43
2022-11-05T06:34:25.390Z,19.62
2022-11-05T06:36:55.413Z,12.95
2022-11-05T06:39:25.248Z,16.20
2022-11-05T06:44:26.530Z,14.10
2022-11-05T06:46:56.406Z,17.60
2022-11-05T06:49:26.784Z,16.95
2022-11-05T06:51:56.512Z,24.10
2022-11-05T06:54:26.447Z,16.40
2022-11-05T06:56:56.459Z,22.33
2022-11-05T06:59:26.295Z,20.37
2022-11-05T07:01:55.953Z,18.80
2022-11-05T07:04:25.922Z,21.33
2022-11-05T07:06:55.700Z,23.37
2022-11-05T07:09:25.888Z,23.00
2022-11-05T07:11:55.951Z,20.13
2022-11-05T07:14:25.902Z,21.27
2022-11-05T07:16:57.236Z,21.20
2022-11-05T07:19:27.009Z,19.53
2022-11-05T07:21:57.059Z,21.02
2022-11-05T07:24:26.555Z,25.25
2022-11-05T07:26:56.315Z,21.27
2022-11-05T07:29:26.097Z,24.00
2022-11-05T07:31:55.883Z,21.07
2022-11-05T07:34:25.665Z,19.07
2022-11-05T07:36:55.452Z,21.60
2022-11-05T07:39:25.199Z,24.70
2022-11-05T07:41:55.656Z,25.95
2022-11-05T07:44:26.956Z,25.08
2022-11-05T07:46:57.039Z,29.23
2022-11-05T07:49:26.478Z,24.40
2022-11-05T07:51:56.292Z,21.77
2022-11-05T07:54:26.762Z,20.40
2022-11-05T07:56:56.513Z,21.13
2022-11-05T07:59:26.304Z,21.73
2022-11-05T08:01:56.523Z,22.15
2022-11-05T08:04:26.734Z,24.63
2022-11-05T08:06:56.476Z,19.27
2022-11-05T08:09:26.324Z,22.50
2022-11-05T08:12:02.693Z,31.15
2022-11-05T08:14:28.626Z,19.93
2022-11-05T08:17:01.283Z,22.55
2022-11-05T08:19:30.762Z,22.30
2022-11-05T08:22:00.553Z,20.60
2022-11-05T08:24:30.323Z,23.60
2022-11-05T08:27:00.139Z,20.63
2022-11-05T08:29:29.636Z,19.80
2022-11-05T08:31:59.435Z,19.47
2022-11-05T08:34:29.279Z,18.43
2022-11-05T08:37:00.920Z,19.27
2022-11-05T08:39:30.789Z,17.70
2022-11-05T08:42:00.723Z,18.63
2022-11-05T08:44:30.748Z,18.77
2022-11-05T08:47:00.661Z,22.90
2022-11-05T08:49:30.435Z,19.97
2022-11-05T08:52:00.207Z,19.70
2022-11-05T08:54:29.954Z,14.47
2022-11-05T08:56:59.472Z,15.25
2022-11-05T08:59:29.799Z,12.90
2022-11-05T09:01:59.890Z,15.17
2022-11-05T09:04:29.423Z,19.65
2022-11-05T09:06:59.209Z,11.60
2022-11-05T09:09:29.253Z,13.88
2022-11-05T09:12:11.696Z,15.10
2022-11-05T09:14:31.500Z,13.10
2022-11-05T09:17:01.228Z,13.70
2022-11-05T09:19:30.744Z,13.00
2022-11-05T09:22:00.547Z,16.90
2022-11-05T09:24:30.876Z,11.60
2022-11-05T09:27:00.709Z,15.63
2022-11-05T09:29:30.481Z,13.97
2022-11-05T09:32:00.262Z,14.83
2022-11-05T09:34:30.097Z,13.97
2022-11-05T09:36:59.735Z,11.05
2022-11-05T09:39:30.055Z,13.83
2022-11-05T09:42:02.855Z,11.45
2022-11-05T09:44:41.103Z,11.57
2022-11-05T09:47:24.048Z,11.50
2022-11-05T09:49:56.335Z,11.53
2022-11-05T09:52:28.756Z,9.83
2022-11-05T09:54:59.025Z,14.73
2022-11-05T09:57:40.137Z,12.67
2022-11-05T10:02:56.416Z,14.53
2022-11-05T10:05:27.904Z,14.77
2022-11-05T10:08:00.691Z,12.43
2022-11-05T10:10:41.048Z,9.80
2022-11-05T10:13:39.360Z,10.83
2022-11-05T10:16:26.767Z,13.20
2022-11-05T10:19:19.138Z,12.40
2022-11-05T10:22:06.321Z,13.78
2022-11-05T10:24:22.263Z,8.20
2022-11-05T10:26:54.072Z,9.60
2022-11-05T10:29:32.356Z,7.23
2022-11-05T10:32:05.524Z,10.07
2022-11-05T10:34:37.937Z,10.27
2022-11-05T10:37:07.715Z,13.83
2022-11-05T10:39:38.024Z,9.20
2022-11-05T10:42:15.552Z,15.03
2022-11-05T10:44:51.070Z,12.53
2022-11-05T10:47:26.540Z,11.00
2022-11-05T10:50:15.636Z,6.10
2022-11-05T10:52:57.347Z,8.20
2022-11-05T10:55:33.212Z,7.40
2022-11-05T10:58:18.005Z,11.67
2022-11-05T11:00:53.664Z,7.83
2022-11-05T11:03:50.176Z,8.47
2022-11-05T11:06:28.461Z,8.30
2022-11-05T11:09:03.233Z,9.63
2022-11-05T11:11:39.024Z,9.70
2022-11-05T11:14:17.177Z,7.40
2022-11-05T11:16:51.155Z,9.20
2022-11-05T11:19:35.130Z,10.47
2022-11-05T11:22:10.797Z,8.03
2022-11-05T11:24:49.948Z,7.80
2022-11-05T11:27:25.916Z,9.03
2022-11-05T11:30:07.043Z,8.28
2022-11-05T11:32:40.887Z,8.13
2022-11-05T11:35:22.392Z,8.60
2022-11-05T11:37:54.552Z,11.23
2022-11-05T11:40:27.321Z,8.83
2022-11-05T11:42:59.472Z,7.97
2022-11-05T11:45:35.059Z,8.77
2022-11-05T11:48:09.210Z,6.37
2022-11-05T11:50:46.996Z,9.40
2022-11-05T11:53:22.686Z,11.63
2022-11-05T11:56:16.527Z,13.00
2022-11-05T11:58:51.305Z,9.90
2022-11-05T12:01:43.416Z,7.23
2022-11-05T12:04:28.038Z,8.33
2022-11-05T12:07:27.873Z,10.50
2022-11-05T12:10:04.249Z,12.10
2022-11-05T12:12:37.044Z,10.63
2022-11-05T12:15:23.188Z,9.33
2022-11-05T12:18:02.060Z,9.00
2022-11-05T12:20:43.386Z,10.37
2022-11-05T12:23:31.372Z,11.77
2022-11-05T12:26:06.664Z,7.13
2022-11-05T12:29:17.138Z,6.23
2022-11-05T12:31:44.611Z,12.90
2022-11-05T12:36:55.992Z,8.88
2022-11-05T12:39:44.845Z,9.58
2022-11-05T12:42:42.883Z,10.20
2022-11-05T12:45:33.279Z,9.55
2022-11-05T12:48:09.011Z,11.83
2022-11-05T12:50:44.356Z,11.10
2022-11-05T12:56:10.000Z,13.48
2022-11-05T12:58:42.629Z,11.07
2022-11-05T13:01:18.454Z,9.83
2022-11-05T13:03:54.285Z,9.93
2022-11-05T13:06:26.769Z,12.10
2022-11-05T13:09:02.474Z,12.43
2022-11-05T13:11:37.552Z,11.07
2022-11-05T13:14:14.940Z,10.83
2022-11-05T13:17:05.681Z,10.00
2022-11-05T13:19:53.455Z,9.78
2022-11-05T13:22:38.112Z,12.05
2022-11-05T13:25:26.459Z,14.37
2022-11-05T13:28:26.296Z,9.77
2022-11-05T13:31:01.527Z,11.27
2022-11-05T13:33:34.634Z,9.33
2022-11-05T13:36:27.046Z,9.38
2022-11-05T13:39:11.653Z,9.47
2022-11-05T13:42:17.284Z,9.37
2022-11-05T13:44:55.820Z,8.20
2022-11-05T13:47:49.558Z,7.20
2022-11-05T13:50:50.333Z,6.45
2022-11-05T13:53:40.997Z,7.03
2022-11-05T13:56:35.594Z,8.52
2022-11-05T13:59:24.612Z,9.20
2022-11-05T14:02:03.086Z,7.87
2022-11-05T14:04:38.758Z,6.30
2022-11-05T14:07:14.640Z,8.13
2022-11-05T14:12:22.667Z,8.50
2022-11-05T14:14:59.155Z,6.23
2022-11-05T14:17:31.266Z,7.05
2022-11-05T14:20:09.616Z,11.83
2022-11-05T14:22:43.349Z,6.70
2022-11-05T14:25:25.360Z,11.17
2022-11-05T14:27:55.210Z,10.03
2022-11-05T14:30:48.994Z,9.00
2022-11-05T14:33:31.533Z,8.07
2022-11-05T14:36:22.317Z,11.43
2022-11-05T14:39:03.981Z,8.80
2022-11-05T14:41:30.047Z,7.05
2022-11-05T14:44:02.825Z,15.03
2022-11-05T14:46:48.206Z,10.23
2022-11-05T14:49:23.773Z,8.43
2022-11-05T14:51:56.289Z,10.37
2022-11-05T14:54:29.410Z,8.15
2022-11-05T14:57:03.026Z,10.23
2022-11-05T14:59:35.337Z,10.10
2022-11-05T15:02:14.099Z,6.53
2022-11-05T15:04:45.694Z,9.37
2022-11-05T15:07:25.002Z,7.05
2022-11-05T15:09:57.787Z,9.50
2022-11-05T15:12:51.592Z,10.55
2022-11-05T15:15:29.880Z,9.53
2022-11-05T15:18:05.434Z,9.97
2022-11-05T15:20:41.081Z,9.20
2022-11-05T15:23:14.067Z,11.47
2022-11-05T15:25:53.162Z,7.93
2022-11-05T15:28:38.803Z,10.50
2022-11-05T15:31:14.031Z,18.20
2022-11-05T15:33:48.393Z,7.67
2022-11-05T15:36:29.343Z,11.12
2022-11-05T15:39:29.130Z,9.80
2022-11-05T15:41:48.437Z,10.68
2022-11-05T15:44:28.269Z,12.30
2022-11-05T15:47:19.287Z,10.33
2022-11-05T15:49:57.793Z,10.20
2022-11-05T15:52:36.434Z,8.63
2022-11-05T15:55:12.971Z,14.70
2022-11-05T15:57:51.663Z,8.15
2022-11-05T16:00:24.470Z,13.30
2022-11-05T16:03:06.706Z,10.98
2022-11-05T16:05:39.274Z,14.35
2022-11-05T16:08:16.840Z,19.35
2022-11-05T16:10:49.707Z,18.95
2022-11-05T16:13:31.698Z,12.53
2022-11-05T16:16:05.274Z,12.40
2022-11-05T16:18:38.527Z,19.73
2022-11-05T16:21:18.487Z,15.03
2022-11-05T16:23:51.534Z,11.17
2022-11-05T16:29:22.010Z,11.37
2022-11-05T16:31:54.672Z,7.87
2022-11-05T16:34:36.622Z,9.70
2022-11-05T16:37:08.909Z,9.00
2022-11-05T16:39:38.781Z,14.07
2022-11-05T16:42:28.926Z,13.50
2022-11-05T16:44:58.681Z,10.40
2022-11-05T16:47:28.451Z,7.50
2022-11-05T16:49:58.259Z,9.63
2022-11-05T16:52:28.047Z,7.75
2022-11-05T16:54:57.835Z,11.03
2022-11-05T16:57:30.882Z,8.93
2022-11-05T17:00:01.837Z,8.40
2022-11-05T17:02:31.723Z,9.10
2022-11-05T17:05:01.569Z,9.17
2022-11-05T17:07:31.346Z,8.13
2022-11-05T17:10:01.163Z,5.60
2022-11-05T17:12:30.611Z,10.23
2022-11-05T17:15:00.375Z,8.17
2022-11-05T17:17:30.436Z,13.83
2022-11-05T17:20:00.198Z,14.23
2022-11-05T17:22:29.940Z,9.93
2022-11-05T17:24:59.678Z,11.10
2022-11-05T17:27:29.431Z,8.07
2022-11-05T17:29:58.931Z,8.65
2022-11-05T17:32:28.764Z,10.43
2022-11-05T17:34:58.541Z,10.80
2022-11-05T17:37:28.359Z,6.10
2022-11-05T17:39:58.438Z,9.47
2022-11-05T17:42:28.116Z,8.07
2022-11-05T17:44:58.169Z,9.27
2022-11-05T17:47:28.627Z,7.97
2022-11-05T17:49:58.436Z,12.10
2022-11-05T17:52:29.478Z,11.17
2022-11-05T17:54:59.209Z,10.87
2022-11-05T17:57:29.048Z,11.90
2022-11-05T17:59:58.778Z,9.73
2022-11-05T18:02:29.583Z,8.87
2022-11-05T18:04:59.442Z,16.87
2022-11-05T18:07:29.203Z,12.27
2022-11-05T18:09:59.036Z,8.97
2022-11-05T18:12:28.899Z,12.67
2022-11-05T18:14:58.453Z,10.60
2022-11-05T18:17:28.310Z,10.13
2022-11-05T18:19:58.273Z,7.83
2022-11-05T18:22:28.006Z,7.27
2022-11-05T18:24:57.760Z,7.80
2022-11-05T18:27:27.997Z,4.25
2022-11-05T18:29:58.083Z,7.85
2022-11-05T18:32:27.659Z,8.40
2022-11-05T18:34:57.417Z,10.13
2022-11-05T18:37:27.196Z,10.97
2022-11-05T18:39:56.952Z,12.30
2022-11-05T18:42:26.755Z,8.48
2022-11-05T18:44:56.576Z,8.30
2022-11-05T18:47:26.420Z,13.97
2022-11-05T18:49:56.231Z,15.67
2022-11-05T18:52:26.535Z,13.18
2022-11-05T18:54:56.368Z,10.17
2022-11-05T18:57:26.282Z,9.20
2022-11-05T18:59:56.064Z,9.23
2022-11-05T19:02:25.728Z,9.17
2022-11-05T19:05:26.901Z,9.83
2022-11-05T19:07:27.122Z,11.67
2022-11-05T19:09:56.848Z,7.07
2022-11-05T19:12:26.602Z,8.18
2022-11-05T19:15:01.920Z,9.33
2022-11-05T19:17:27.816Z,12.50
2022-11-05T19:19:57.613Z,5.40
2022-11-05T19:22:27.764Z,7.90
2022-11-05T19:24:57.809Z,8.33
2022-11-05T19:27:27.561Z,14.53
2022-11-05T19:29:57.587Z,8.38
2022-11-05T19:32:27.716Z,5.92
2022-11-05T19:34:57.907Z,7.42
2022-11-05T19:37:27.701Z,7.20
2022-11-05T19:39:57.503Z,11.37
2022-11-05T19:42:28.087Z,8.03
2022-11-05T19:45:03.176Z,11.70
2022-11-05T19:47:29.105Z,10.27
2022-11-05T19:49:58.850Z,8.60
2022-11-05T19:52:28.656Z,9.90
2022-11-05T19:54:58.171Z,11.70
2022-11-05T19:57:28.684Z,11.35
2022-11-05T19:59:58.438Z,9.77
2022-11-05T20:02:28.619Z,12.73
2022-11-05T20:04:58.814Z,12.63
2022-11-05T20:07:28.570Z,13.23
2022-11-05T20:09:58.317Z,11.17
2022-11-05T20:12:27.792Z,8.60
2022-11-05T20:14:57.571Z,11.83
2022-11-05T20:17:27.407Z,8.63
2022-11-05T20:19:56.930Z,13.85
2022-11-05T20:22:26.691Z,6.92
2022-11-05T20:24:56.743Z,11.48
2022-11-05T20:27:26.537Z,11.30
2022-11-05T20:29:56.362Z,11.43
2022-11-05T20:32:27.392Z,13.38
2022-11-05T20:34:57.261Z,10.97
2022-11-05T20:37:27.051Z,14.83
2022-11-05T20:39:56.865Z,11.90
2022-11-05T20:42:26.442Z,10.00
2022-11-05T20:44:56.170Z,12.67
2022-11-05T20:47:25.917Z,13.93
2022-11-05T20:49:57.281Z,14.43
2022-11-05T20:52:29.703Z,14.28
2022-11-05T20:55:01.091Z,9.98
2022-11-05T20:57:30.925Z,13.43
2022-11-05T21:00:00.675Z,10.33
2022-11-05T21:02:30.591Z,11.07
2022-11-05T21:05:00.171Z,11.10
2022-11-05T21:07:29.983Z,12.77
2022-11-05T21:10:00.102Z,11.93
2022-11-05T21:12:29.872Z,10.03
2022-11-05T21:14:59.926Z,11.05
2022-11-05T21:17:29.727Z,10.93
2022-11-05T21:19:59.176Z,14.13
2022-11-05T21:22:28.874Z,15.95
2022-11-05T21:24:58.606Z,12.25
2022-11-05T21:27:28.534Z,14.97
2022-11-05T21:29:57.997Z,14.95
2022-11-05T21:32:27.771Z,14.78
2022-11-05T21:34:57.544Z,16.10
2022-11-05T21:37:27.519Z,12.30
2022-11-05T21:39:57.273Z,13.67
2022-11-05T21:42:26.750Z,12.80
2022-11-05T21:45:00.368Z,8.85
2022-11-05T21:47:29.277Z,11.17
2022-11-05T21:49:59.063Z,13.57
2022-11-05T21:52:46.604Z,10.78
2022-11-05T21:55:33.761Z,11.22
2022-11-05T21:58:23.827Z,14.20
2022-11-05T22:00:53.591Z,11.17
2022-11-05T22:03:23.654Z,11.53
2022-11-05T22:05:53.947Z,11.00
2022-11-05T22:08:23.482Z,13.40
2022-11-05T22:10:53.233Z,14.73
2022-11-05T22:13:23.029Z,13.77
2022-11-05T22:15:56.927Z,11.80
2022-11-05T22:18:26.750Z,12.13
2022-11-05T22:20:56.476Z,17.10
2022-11-05T22:23:26.237Z,10.47
2022-11-05T22:26:02.472Z,15.37
2022-11-05T22:28:32.053Z,10.82
2022-11-05T22:31:01.801Z,16.50
2022-11-05T22:33:32.548Z,12.27
2022-11-05T22:36:03.802Z,13.73
2022-11-05T22:38:33.933Z,16.12
2022-11-05T22:41:10.895Z,13.83
2022-11-05T22:43:40.828Z,10.50
2022-11-05T22:46:14.490Z,10.54
2022-11-05T22:48:45.061Z,10.50
2022-11-05T22:51:17.872Z,9.53
2022-11-05T22:53:48.210Z,11.63
2022-11-05T22:56:20.825Z,11.43
2022-11-05T22:58:51.627Z,11.37
2022-11-05T23:01:22.515Z,9.07
2022-11-05T23:03:54.466Z,12.53
2022-11-05T23:06:50.651Z,13.07
2022-11-05T23:09:52.851Z,11.77
2022-11-05T23:12:25.471Z,13.37
2022-11-05T23:14:57.484Z,13.03
2022-11-05T23:17:45.282Z,12.50
2022-11-05T23:20:40.678Z,11.33
2022-11-05T23:23:31.421Z,13.20
2022-11-05T23:26:03.954Z,10.63
2022-11-05T23:28:33.699Z,14.73
2022-11-05T23:31:20.756Z,12.13
2022-11-05T23:33:50.498Z,12.27
2022-11-05T23:36:38.188Z,10.20
2022-11-05T23:39:08.079Z,8.60
2022-11-05T23:41:55.173Z,12.83
2022-11-05T23:44:42.187Z,11.53
2022-11-05T23:47:29.449Z,8.73
2022-11-05T23:49:59.209Z,7.40
2022-11-05T23:52:28.951Z,11.37
2022-11-05T23:54:59.031Z,9.73
2022-11-05T23:57:28.786Z,15.03
2022-11-05T23:59:58.538Z,11.10
